Time;durP1;ratioP1;P1;durP2;ratioP2;P2;SDS_P1;SDS_P2;PMS_P1;PMS_P2;Temp;Humidity;BMP_temperature;BMP_pressure;BME280_temperature;BME280_humidity;BME280_pressure;Samples;Min_cycle;Max_cycle;Signal;HPM_P1;HPM_P2
2022/06/27 00:00:34;;;;;;;11.00;9.63;;;17.70;99.90;;;;;;5016238;28;20038;-84
2022/06/27 00:03:00;;;;;;;11.50;9.45;;;17.70;99.90;;;;;;5016102;28;20033;-84
2022/06/27 00:05:29;;;;;;;13.55;8.80;;;17.60;99.90;;;;;;5014351;28;20076;-84
2022/06/27 00:07:54;;;;;;;11.93;9.32;;;17.60;99.90;;;;;;5022758;28;20038;-83
2022/06/27 00:10:20;;;;;;;11.48;9.48;;;17.60;99.90;;;;;;5028556;28;20036;-84
2022/06/27 00:12:46;;;;;;;12.18;9.43;;;17.60;99.90;;;;;;5006944;28;20408;-84
2022/06/27 00:15:12;;;;;;;13.73;10.27;;;17.60;99.90;;;;;;5001987;28;20076;-83
2022/06/27 00:17:39;;;;;;;14.77;10.30;;;17.60;99.90;;;;;;5011592;28;20458;-84
2022/06/27 00:20:05;;;;;;;11.68;9.50;;;17.60;99.90;;;;;;5011976;28;20049;-83
2022/06/27 00:22:31;;;;;;;10.80;9.35;;;17.60;99.90;;;;;;4990820;28;20490;-83
2022/06/27 00:24:57;;;;;;;12.70;9.82;;;17.60;99.90;;;;;;5046622;28;20044;-84
2022/06/27 00:27:23;;;;;;;13.65;10.32;;;17.60;99.90;;;;;;5032345;28;20073;-84
2022/06/27 00:29:48;;;;;;;12.27;9.52;;;17.50;99.90;;;;;;5022163;28;20042;-84
2022/06/27 00:32:16;;;;;;;14.90;10.55;;;17.50;99.90;;;;;;4997590;28;20471;-83
2022/06/27 00:34:41;;;;;;;13.95;10.80;;;17.50;99.90;;;;;;5021127;28;20065;-83
2022/06/27 00:37:07;;;;;;;11.65;10.38;;;17.50;99.90;;;;;;5016592;28;20499;-83
2022/06/27 00:39:33;;;;;;;14.43;11.27;;;17.50;99.90;;;;;;5007330;28;20049;-83
2022/06/27 00:41:59;;;;;;;20.95;11.63;;;17.50;99.90;;;;;;5005721;28;20056;-82
2022/06/27 00:44:37;;;;;;;16.88;12.60;;;17.50;99.90;;;;;;5014392;28;20396;-83
2022/06/27 00:47:04;;;;;;;16.27;12.15;;;17.50;99.90;;;;;;5028597;28;20113;-83
2022/06/27 00:49:31;;;;;;;14.60;12.50;;;17.50;99.90;;;;;;5044946;28;20041;-83
2022/06/27 00:51:57;;;;;;;13.63;11.93;;;17.50;99.90;;;;;;5039395;28;20044;-82
2022/06/27 00:54:24;;;;;;;16.15;11.68;;;17.50;99.90;;;;;;4995329;28;20037;-82
2022/06/27 00:56:51;;;;;;;12.82;11.43;;;17.50;99.90;;;;;;5025634;28;20550;-82
2022/06/27 00:59:17;;;;;;;14.50;12.05;;;17.50;99.90;;;;;;5033554;28;20034;-82
2022/06/27 01:01:43;;;;;;;14.65;11.50;;;17.50;99.90;;;;;;5017616;28;20103;-82
2022/06/27 01:04:08;;;;;;;12.55;11.27;;;17.50;99.90;;;;;;5028330;28;20037;-82
2022/06/27 01:06:34;;;;;;;18.10;12.73;;;17.50;99.90;;;;;;5014743;28;20038;-82
2022/06/27 01:09:00;;;;;;;12.82;11.48;;;17.50;99.90;;;;;;5020009;28;20038;-82
2022/06/27 01:11:25;;;;;;;13.55;12.10;;;17.50;99.90;;;;;;4994283;28;20033;-82
2022/06/27 01:13:51;;;;;;;15.30;11.43;;;17.50;99.90;;;;;;5014315;28;20342;-82
2022/06/27 01:16:18;;;;;;;13.77;11.82;;;17.50;99.90;;;;;;5045176;28;20095;-82
2022/06/27 01:18:44;;;;;;;15.05;12.15;;;17.50;99.90;;;;;;5001821;28;20487;-82
2022/06/27 01:21:20;;;;;;;15.48;13.02;;;17.50;99.90;;;;;;5019722;28;20044;-82
2022/06/27 01:23:46;;;;;;;16.70;12.43;;;17.50;99.90;;;;;;5024145;28;20373;-81
2022/06/27 01:26:12;;;;;;;14.73;12.75;;;17.40;99.90;;;;;;5000658;28;20498;-81
2022/06/27 01:28:38;;;;;;;16.92;12.98;;;17.50;99.90;;;;;;5018516;28;20068;-82
2022/06/27 01:31:04;;;;;;;18.13;13.65;;;17.40;99.90;;;;;;5025599;28;20399;-82
2022/06/27 01:33:30;;;;;;;15.10;12.98;;;17.40;99.90;;;;;;5029907;28;20034;-83
2022/06/27 01:38:40;;;;;;;15.93;13.18;;;17.40;99.90;;;;;;4999080;28;21111;-83
2022/06/27 01:41:06;;;;;;;14.98;12.82;;;17.40;99.90;;;;;;5029543;28;20121;-82
2022/06/27 01:43:33;;;;;;;17.05;13.35;;;17.40;99.90;;;;;;5027336;28;20123;-83
2022/06/27 01:45:59;;;;;;;17.40;13.48;;;17.40;99.90;;;;;;5018497;28;20119;-82
2022/06/27 01:48:25;;;;;;;16.45;13.55;;;17.40;99.90;;;;;;4998007;28;20430;-82
2022/06/27 01:50:54;;;;;;;17.50;12.82;;;17.40;99.90;;;;;;5006976;28;20079;-82
2022/06/27 01:53:20;;;;;;;16.45;13.48;;;17.40;99.90;;;;;;4994614;28;21367;-82
2022/06/27 01:55:46;;;;;;;16.52;13.98;;;17.40;99.90;;;;;;5001077;28;20513;-81
2022/06/27 01:58:13;;;;;;;16.88;14.00;;;17.40;99.90;;;;;;5022673;28;20034;-80
2022/06/27 02:00:39;;;;;;;22.88;13.15;;;17.40;99.90;;;;;;5011347;28;20048;-81
2022/06/27 02:03:05;;;;;;;17.05;13.73;;;17.40;99.90;;;;;;5026419;28;20037;-80
2022/06/27 02:05:32;;;;;;;19.25;15.50;;;17.40;99.90;;;;;;5024495;28;20043;-79
2022/06/27 02:07:59;;;;;;;19.85;14.93;;;17.30;99.90;;;;;;5028496;28;20539;-78
2022/06/27 02:10:25;;;;;;;20.35;15.32;;;17.30;99.90;;;;;;5024128;28;20284;-78
2022/06/27 02:12:51;;;;;;;15.23;13.65;;;17.30;99.90;;;;;;5032226;28;20435;-78
2022/06/27 02:15:17;;;;;;;18.65;13.85;;;17.30;99.90;;;;;;4993927;28;20084;-78
2022/06/27 02:17:43;;;;;;;21.33;14.85;;;17.30;99.90;;;;;;5005309;28;20081;-78
2022/06/27 02:20:09;;;;;;;16.30;13.15;;;17.30;99.90;;;;;;5020815;28;20043;-79
2022/06/27 02:22:35;;;;;;;17.80;14.63;;;17.30;99.90;;;;;;5009109;28;20515;-79
2022/06/27 02:25:01;;;;;;;22.75;16.48;;;17.30;99.90;;;;;;5009140;28;20065;-79
2022/06/27 02:27:29;;;;;;;23.60;17.13;;;17.30;99.90;;;;;;4988713;28;20042;-79
2022/06/27 02:29:55;;;;;;;18.90;16.70;;;17.20;99.90;;;;;;5026044;28;20033;-78
2022/06/27 02:32:21;;;;;;;23.92;19.65;;;17.20;99.90;;;;;;5017507;28;20114;-78
2022/06/27 02:34:50;;;;;;;26.30;19.38;;;17.20;99.90;;;;;;4999256;28;20034;-79
2022/06/27 02:37:17;;;;;;;25.10;20.27;;;17.20;99.90;;;;;;5043328;28;20129;-78
2022/06/27 02:39:45;;;;;;;18.88;16.88;;;17.20;99.90;;;;;;5021621;28;20057;-79
2022/06/27 02:42:13;;;;;;;22.58;18.70;;;17.20;99.90;;;;;;5000443;28;20045;-78
2022/06/27 02:44:39;;;;;;;19.70;17.70;;;17.20;99.90;;;;;;5012555;28;20112;-78
2022/06/27 02:47:06;;;;;;;24.33;20.13;;;17.20;99.90;;;;;;5024632;28;20671;-78
2022/06/27 02:49:32;;;;;;;20.67;17.13;;;17.10;99.90;;;;;;5022475;28;20147;-78
2022/06/27 02:52:24;;;;;;;17.33;15.40;;;17.10;99.90;;;;;;5024347;28;20112;-79
2022/06/27 02:55:01;;;;;;;17.45;13.35;;;17.10;99.90;;;;;;5015927;28;20436;-79
2022/06/27 02:57:34;;;;;;;14.57;11.32;;;17.10;99.90;;;;;;5009191;28;20034;-78
2022/06/27 03:00:01;;;;;;;;;;;17.10;99.90;;;;;;5022452;28;20099;-78
2022/06/27 03:02:28;;;;;;;16.25;12.13;;;17.10;99.90;;;;;;5024855;28;20276;-78
2022/06/27 03:04:56;;;;;;;13.55;11.40;;;17.00;99.90;;;;;;5010395;28;20069;-77
2022/06/27 03:07:22;;;;;;;12.02;10.73;;;17.00;99.90;;;;;;5009688;28;20043;-78
2022/06/27 03:09:48;;;;;;;13.10;11.57;;;17.00;99.90;;;;;;5026170;28;20064;-79
2022/06/27 03:12:14;;;;;;;13.05;11.65;;;16.90;99.90;;;;;;5010187;28;20041;-79
2022/06/27 03:14:40;;;;;;;11.85;10.57;;;16.90;99.90;;;;;;5025879;28;20033;-79
2022/06/27 03:17:05;;;;;;;12.93;9.82;;;16.80;99.90;;;;;;5025767;28;20127;-79
2022/06/27 03:19:31;;;;;;;13.73;11.40;;;16.80;99.90;;;;;;5039303;28;20107;-79
2022/06/27 03:21:57;;;;;;;14.15;11.77;;;16.70;99.90;;;;;;5020459;28;20075;-78
2022/06/27 03:24:23;;;;;;;12.75;10.98;;;16.70;99.90;;;;;;5007862;28;20077;-77
2022/06/27 03:26:48;;;;;;;13.48;11.38;;;16.60;99.90;;;;;;5009156;28;20034;-77
2022/06/27 03:29:14;;;;;;;16.33;13.88;;;16.60;99.90;;;;;;5014496;28;20495;-77
2022/06/27 03:31:41;;;;;;;14.68;11.85;;;16.60;99.90;;;;;;5028123;28;20084;-77
2022/06/27 03:34:07;;;;;;;12.88;10.13;;;16.60;99.90;;;;;;5028699;28;20045;-77
2022/06/27 03:36:33;;;;;;;10.82;9.73;;;16.50;99.90;;;;;;5014552;28;20148;-77
2022/06/27 03:38:59;;;;;;;13.13;10.80;;;16.50;99.90;;;;;;5028908;28;20107;-77
2022/06/27 03:41:25;;;;;;;9.45;8.55;;;16.50;99.90;;;;;;5012809;28;20038;-76
2022/06/27 03:43:51;;;;;;;10.65;9.00;;;16.40;99.90;;;;;;5029207;28;20075;-76
2022/06/27 03:46:17;;;;;;;10.65;8.77;;;16.40;99.90;;;;;;4997732;28;20744;-76
2022/06/27 03:51:26;;;;;;;10.95;9.52;;;16.30;99.90;;;;;;5014489;28;20490;-76
2022/06/27 03:53:52;;;;;;;11.18;9.57;;;16.30;99.90;;;;;;4997116;28;20041;-77
2022/06/27 03:56:19;;;;;;;11.23;9.38;;;16.30;99.90;;;;;;4994075;28;20495;-77
2022/06/27 03:58:45;;;;;;;15.70;10.70;;;16.30;99.90;;;;;;5029433;28;20249;-77
2022/06/27 04:01:11;;;;;;;12.18;9.15;;;16.30;99.90;;;;;;5014256;28;20037;-76
2022/06/27 04:03:37;;;;;;;11.43;9.45;;;16.30;99.90;;;;;;5011547;28;20044;-76
2022/06/27 04:06:02;;;;;;;10.85;9.27;;;16.30;99.90;;;;;;5014234;28;20065;-76
2022/06/27 04:08:28;;;;;;;10.18;8.85;;;16.30;99.90;;;;;;5011947;28;20118;-76
2022/06/27 04:10:57;;;;;;;13.95;10.68;;;16.30;99.90;;;;;;5029412;28;20045;-77
2022/06/27 04:13:23;;;;;;;11.68;9.43;;;16.20;99.90;;;;;;5028956;28;20045;-76
2022/06/27 04:15:49;;;;;;;11.95;8.55;;;16.30;99.90;;;;;;5029366;28;20507;-76
2022/06/27 04:18:15;;;;;;;10.48;9.00;;;16.20;99.90;;;;;;5012227;28;20475;-76
2022/06/27 04:20:42;;;;;;;9.35;8.05;;;16.30;99.90;;;;;;5013374;28;20045;-76
2022/06/27 04:23:08;;;;;;;9.52;8.52;;;16.20;99.90;;;;;;5013761;28;20041;-76
2022/06/27 04:25:33;;;;;;;10.32;8.13;;;16.20;99.90;;;;;;5030580;28;20132;-76
2022/06/27 04:27:59;;;;;;;10.23;8.20;;;16.20;99.90;;;;;;5013929;28;20042;-76
2022/06/27 04:30:25;;;;;;;10.40;8.30;;;16.20;99.90;;;;;;4997937;28;20040;-76
2022/06/27 04:32:51;;;;;;;10.90;8.40;;;16.20;99.90;;;;;;5010302;28;20506;-76
2022/06/27 04:35:17;;;;;;;11.88;9.18;;;16.10;99.90;;;;;;5012012;28;20407;-75
2022/06/27 04:37:44;;;;;;;13.68;10.55;;;16.10;99.90;;;;;;5010654;28;20479;-76
2022/06/27 04:40:12;;;;;;;10.40;9.23;;;16.10;99.90;;;;;;5011604;28;20136;-76
2022/06/27 04:42:38;;;;;;;10.55;9.10;;;16.10;99.90;;;;;;5012033;28;20491;-76
2022/06/27 04:45:11;;;;;;;13.13;9.38;;;16.10;99.90;;;;;;5011799;28;20043;-76
2022/06/27 04:47:44;;;;;;;9.82;8.73;;;16.10;99.90;;;;;;5009345;28;20273;-76
2022/06/27 04:50:13;;;;;;;9.55;7.90;;;16.10;99.90;;;;;;5011644;28;20095;-76
2022/06/27 04:52:40;;;;;;;9.55;8.52;;;16.00;99.90;;;;;;5029459;28;20072;-76
2022/06/27 04:55:08;;;;;;;8.35;7.50;;;16.00;99.90;;;;;;5029934;28;20038;-76
2022/06/27 04:57:38;;;;;;;10.50;8.50;;;16.00;99.90;;;;;;5039407;28;20095;-76
2022/06/27 05:00:07;;;;;;;9.27;8.30;;;16.00;99.90;;;;;;5008660;28;20029;-76
2022/06/27 05:02:33;;;;;;;8.95;7.70;;;16.00;99.90;;;;;;5010994;28;20466;-76
2022/06/27 05:04:59;;;;;;;8.38;7.57;;;15.90;99.90;;;;;;5029287;28;20068;-76
2022/06/27 05:07:25;;;;;;;8.60;6.80;;;15.90;99.90;;;;;;5010358;28;20566;-76
2022/06/27 05:09:52;;;;;;;8.60;7.10;;;15.90;99.90;;;;;;5010220;28;20064;-76
2022/06/27 05:12:21;;;;;;;8.77;7.15;;;15.90;99.90;;;;;;5011466;28;20517;-76
2022/06/27 05:14:47;;;;;;;9.10;6.03;;;15.90;99.90;;;;;;5026713;28;20087;-76
2022/06/27 05:17:13;;;;;;;7.75;6.38;;;15.90;99.90;;;;;;5022518;28;20044;-76
2022/06/27 05:19:38;;;;;;;7.85;6.25;;;15.80;99.90;;;;;;5000627;28;20033;-76
2022/06/27 05:22:04;;;;;;;7.53;5.70;;;15.80;99.90;;;;;;5010139;28;20034;-76
2022/06/27 05:24:30;;;;;;;7.85;5.50;;;15.80;99.90;;;;;;5010740;28;20483;-76
2022/06/27 05:26:56;;;;;;;6.25;5.35;;;15.70;99.90;;;;;;5027683;28;20103;-76
2022/06/27 05:29:22;;;;;;;8.05;5.47;;;15.70;99.90;;;;;;5029532;28;20037;-76
2022/06/27 05:31:48;;;;;;;7.50;6.20;;;15.70;99.90;;;;;;5026653;28;20076;-76
2022/06/27 05:34:14;;;;;;;7.70;5.75;;;15.70;99.90;;;;;;4995460;28;20073;-76
2022/06/27 05:36:40;;;;;;;5.63;5.00;;;15.60;99.90;;;;;;5006741;28;20419;-76
2022/06/27 05:39:06;;;;;;;8.32;5.35;;;15.70;99.90;;;;;;5001861;28;20414;-76
2022/06/27 05:41:32;;;;;;;5.32;4.72;;;15.70;99.90;;;;;;5011630;28;20042;-76
2022/06/27 05:43:59;;;;;;;5.90;5.18;;;15.70;99.90;;;;;;5009879;28;20600;-76
2022/06/27 05:46:25;;;;;;;8.80;5.18;;;15.70;99.90;;;;;;5005868;28;20172;-76
2022/06/27 05:48:51;;;;;;;6.72;5.53;;;15.70;99.90;;;;;;5027423;28;20112;-75
2022/06/27 05:51:19;;;;;;;5.93;5.18;;;15.70;99.90;;;;;;5011127;28;20529;-76
2022/06/27 05:53:47;;;;;;;8.02;5.80;;;15.80;99.90;;;;;;5012891;28;20103;-76
2022/06/27 05:56:14;;;;;;;7.65;5.60;;;15.80;99.90;;;;;;5028243;28;20037;-76
2022/06/27 05:58:41;;;;;;;7.20;5.53;;;15.80;99.90;;;;;;5026084;28;20582;-76
2022/06/27 06:01:09;;;;;;;6.70;5.68;;;15.80;99.90;;;;;;5011271;28;20392;-76
2022/06/27 06:03:36;;;;;;;7.00;4.72;;;15.80;99.90;;;;;;4995779;28;20037;-76
2022/06/27 06:06:03;;;;;;;5.85;5.10;;;15.90;99.90;;;;;;5008658;28;20037;-76
2022/06/27 06:08:29;;;;;;;7.30;4.32;;;15.90;99.90;;;;;;4992739;28;20038;-76
2022/06/27 06:10:55;;;;;;;5.68;5.00;;;15.90;99.90;;;;;;5011590;28;20312;-76
2022/06/27 06:13:22;;;;;;;5.85;4.78;;;15.90;99.90;;;;;;5010232;28;20080;-76
2022/06/27 06:15:47;;;;;;;5.90;4.75;;;15.90;99.90;;;;;;5008951;28;20045;-76
2022/06/27 06:18:14;;;;;;;6.47;4.22;;;15.90;99.90;;;;;;5012606;28;20033;-76
2022/06/27 06:20:40;;;;;;;7.78;5.03;;;15.90;99.90;;;;;;5010436;28;20037;-76
2022/06/27 06:23:06;;;;;;;7.63;5.47;;;15.90;99.90;;;;;;5025906;28;20095;-76
2022/06/27 06:25:32;;;;;;;5.35;4.85;;;15.90;99.90;;;;;;4990618;28;20124;-76
2022/06/27 06:28:00;;;;;;;6.00;5.40;;;15.90;99.90;;;;;;5049402;28;20140;-76
2022/06/27 06:30:26;;;;;;;6.53;4.70;;;15.90;99.90;;;;;;4999450;28;20033;-76
2022/06/27 06:32:52;;;;;;;8.95;5.75;;;15.90;99.90;;;;;;4980389;28;20033;-76
2022/06/27 06:35:18;;;;;;;6.90;4.90;;;15.90;99.90;;;;;;5021062;28;20072;-76
2022/06/27 06:37:44;;;;;;;5.57;5.03;;;15.90;99.90;;;;;;5019530;28;20072;-76
2022/06/27 06:40:13;;;;;;;6.40;4.82;;;15.90;99.90;;;;;;5005132;28;20191;-76
2022/06/27 06:42:39;;;;;;;5.40;4.47;;;15.90;99.90;;;;;;4998256;28;20042;-76
2022/06/27 06:45:06;;;;;;;5.70;5.20;;;16.00;99.90;;;;;;5017312;28;20105;-77
2022/06/27 06:47:31;;;;;;;4.95;3.95;;;16.00;99.90;;;;;;4996295;28;20490;-77
2022/06/27 06:49:57;;;;;;;4.43;3.97;;;16.00;99.90;;;;;;5011184;28;20048;-77
2022/06/27 06:52:23;;;;;;;4.75;4.35;;;16.10;99.90;;;;;;5014656;28;20124;-77
2022/06/27 06:54:50;;;;;;;5.82;5.22;;;16.10;99.90;;;;;;5007415;28;20045;-77
2022/06/27 06:57:16;;;;;;;6.57;4.68;;;16.10;99.90;;;;;;5006345;28;20053;-77
2022/06/27 06:59:42;;;;;;;5.22;4.40;;;16.10;99.90;;;;;;5012705;28;20053;-77
2022/06/27 07:02:08;;;;;;;7.10;5.25;;;16.20;99.90;;;;;;5012535;28;20046;-77
2022/06/27 07:04:34;;;;;;;5.82;4.60;;;16.20;99.90;;;;;;5019177;28;20399;-77
2022/06/27 07:07:00;;;;;;;16.17;6.82;;;16.20;99.90;;;;;;5012486;28;20037;-76
2022/06/27 07:09:26;;;;;;;11.05;5.90;;;16.20;99.90;;;;;;4990720;28;20092;-77
2022/06/27 07:11:53;;;;;;;8.15;6.18;;;16.20;99.90;;;;;;5050106;28;20081;-77
2022/06/27 07:14:19;;;;;;;7.32;5.00;;;16.20;99.90;;;;;;5016741;28;20049;-77
2022/06/27 07:16:46;;;;;;;5.78;5.28;;;16.20;99.90;;;;;;5034908;28;20049;-77
2022/06/27 07:19:13;;;;;;;7.10;4.47;;;16.20;99.90;;;;;;5031619;28;20059;-77
2022/06/27 07:21:39;;;;;;;5.50;4.95;;;16.20;99.90;;;;;;5012717;28;20042;-77
2022/06/27 07:24:08;;;;;;;6.45;5.18;;;16.20;99.90;;;;;;5036684;28;20041;-77
2022/06/27 07:26:35;;;;;;;6.43;5.22;;;16.20;99.90;;;;;;5017125;28;20063;-77
2022/06/27 07:29:05;;;;;;;5.97;4.90;;;16.20;99.90;;;;;;5056239;28;20034;-77
2022/06/27 07:31:32;;;;;;;7.78;5.72;;;16.20;99.90;;;;;;5009946;28;20454;-76
2022/06/27 07:34:02;;;;;;;8.07;5.20;;;16.20;99.90;;;;;;5023266;28;20072;-76
2022/06/27 07:36:29;;;;;;;6.35;5.57;;;16.20;99.90;;;;;;5018503;28;20103;-76
2022/06/27 07:38:55;;;;;;;7.80;5.45;;;16.20;99.90;;;;;;5028185;28;21507;-76
2022/06/27 07:41:22;;;;;;;6.82;6.13;;;16.20;99.90;;;;;;5018490;28;20495;-77
2022/06/27 07:43:48;;;;;;;5.80;5.07;;;16.20;99.90;;;;;;5030175;28;20037;-77
2022/06/27 07:46:17;;;;;;;6.60;5.35;;;16.30;99.90;;;;;;5030668;28;20083;-76
2022/06/27 07:48:44;;;;;;;7.32;5.57;;;16.30;99.90;;;;;;5014391;28;20560;-76
2022/06/27 07:51:10;;;;;;;7.65;5.85;;;16.40;99.90;;;;;;5009448;28;20038;-76
2022/06/27 07:53:37;;;;;;;6.43;5.80;;;16.40;99.90;;;;;;5034622;28;20106;-77
2022/06/27 07:56:06;;;;;;;6.57;5.72;;;16.50;99.90;;;;;;5023682;28;20634;-77
2022/06/27 07:58:35;;;;;;;6.10;5.10;;;16.50;99.90;;;;;;5018156;28;20444;-77
2022/06/27 08:01:14;;;;;;;6.18;5.10;;;16.60;99.90;;;;;;5046476;28;20677;-77
2022/06/27 08:03:42;;;;;;;5.50;4.97;;;16.60;99.90;;;;;;5033694;28;20042;-77
2022/06/27 08:06:23;;;;;;;6.15;5.15;;;16.70;99.90;;;;;;5031930;28;20042;-77
2022/06/27 08:08:54;;;;;;;8.07;5.07;;;16.70;99.90;;;;;;5022550;28;20121;-77
2022/06/27 08:11:23;;;;;;;6.18;5.10;;;16.70;99.90;;;;;;5043832;28;20034;-77
2022/06/27 08:13:51;;;;;;;8.60;5.57;;;17.00;99.90;;;;;;5030240;28;20049;-77
2022/06/27 08:16:18;;;;;;;8.43;6.05;;;16.80;99.90;;;;;;5028403;28;20044;-77
2022/06/27 08:18:47;;;;;;;7.18;5.47;;;16.80;99.90;;;;;;5024195;28;20099;-77
2022/06/27 08:21:14;;;;;;;10.52;6.38;;;16.90;99.90;;;;;;5013689;28;20117;-78
2022/06/27 08:23:40;;;;;;;7.90;6.63;;;16.90;99.90;;;;;;5020845;28;20037;-77
2022/06/27 08:26:08;;;;;;;9.50;6.68;;;16.90;99.90;;;;;;5052375;28;20167;-77
2022/06/27 08:28:37;;;;;;;8.13;6.60;;;16.90;99.90;;;;;;5020268;28;20038;-77
2022/06/27 08:31:08;;;;;;;7.80;6.72;;;16.90;99.90;;;;;;5028837;28;20501;-78
2022/06/27 08:33:35;;;;;;;9.00;7.13;;;17.00;99.90;;;;;;5025119;28;20048;-77
2022/06/27 08:36:02;;;;;;;8.23;6.68;;;17.00;99.90;;;;;;5013812;28;20041;-77
2022/06/27 08:38:28;;;;;;;7.65;6.93;;;17.10;99.90;;;;;;5025609;28;20057;-77
2022/06/27 08:40:56;;;;;;;9.23;7.22;;;17.10;99.90;;;;;;5023861;28;20540;-77
2022/06/27 08:43:23;;;;;;;8.35;6.57;;;17.10;99.90;;;;;;5048037;28;20040;-77
2022/06/27 08:45:51;;;;;;;7.20;6.50;;;17.10;99.90;;;;;;4983324;28;20124;-77
2022/06/27 08:48:17;;;;;;;9.25;7.55;;;17.10;99.90;;;;;;5013577;28;20041;-77
2022/06/27 08:50:55;;;;;;;10.43;7.25;;;17.10;99.90;;;;;;5029281;28;20040;-77
2022/06/27 08:53:25;;;;;;;7.55;6.78;;;17.10;99.90;;;;;;5027230;28;20119;-77
2022/06/27 08:55:51;;;;;;;8.07;6.80;;;17.10;99.90;;;;;;5033207;28;20057;-78
2022/06/27 08:58:17;;;;;;;10.38;7.70;;;17.10;99.90;;;;;;5040383;28;20587;-78
2022/06/27 09:00:47;;;;;;;9.65;7.85;;;17.10;99.90;;;;;;5031993;28;20044;-77
2022/06/27 09:03:20;;;;;;;8.80;7.90;;;17.10;99.90;;;;;;5034109;28;20044;-77
2022/06/27 09:05:57;;;;;;;10.18;8.05;;;17.10;99.90;;;;;;5019856;28;20121;-78
2022/06/27 09:08:28;;;;;;;9.00;7.55;;;17.10;99.90;;;;;;5011644;28;20034;-78
2022/06/27 09:10:56;;;;;;;11.05;7.40;;;17.10;99.90;;;;;;5017943;28;20030;-78
2022/06/27 09:13:23;;;;;;;9.35;8.05;;;17.10;99.90;;;;;;5023716;28;20494;-78
2022/06/27 09:15:52;;;;;;;7.95;7.15;;;17.00;99.90;;;;;;5028607;28;20044;-78
2022/06/27 09:18:22;;;;;;;12.55;9.05;;;17.10;99.90;;;;;;5037256;28;20450;-78
2022/06/27 09:21:03;;;;;;;8.63;7.32;;;17.10;99.90;;;;;;5023866;28;20045;-78
2022/06/27 09:23:47;;;;;;;9.30;8.27;;;17.10;99.90;;;;;;5026730;28;20149;-78
2022/06/27 09:26:23;;;;;;;10.35;8.98;;;17.10;99.90;;;;;;5004208;28;20033;-78
2022/06/27 09:29:11;;;;;;;10.05;9.05;;;17.10;99.90;;;;;;5022898;28;20411;-78
2022/06/27 09:31:45;;;;;;;10.60;9.57;;;17.10;99.90;;;;;;5015108;28;20056;-79
2022/06/27 09:34:26;;;;;;;9.40;8.50;;;17.10;99.90;;;;;;5049660;28;20446;-78
2022/06/27 09:36:59;;;;;;;11.68;10.38;;;17.10;99.90;;;;;;5017152;28;20072;-78
2022/06/27 09:39:34;;;;;;;10.40;9.15;;;17.00;99.90;;;;;;5032355;28;20609;-78
2022/06/27 09:42:04;;;;;;;14.43;8.75;;;17.00;99.90;;;;;;5032082;28;20120;-78
2022/06/27 09:44:41;;;;;;;10.15;8.60;;;17.00;99.90;;;;;;5003101;28;20056;-78
2022/06/27 09:47:20;;;;;;;11.35;9.88;;;17.00;99.90;;;;;;5011076;28;20041;-79
2022/06/27 09:49:51;;;;;;;10.45;8.35;;;17.00;99.90;;;;;;5015991;28;20613;-78
2022/06/27 09:52:23;;;;;;;9.15;8.23;;;17.00;99.90;;;;;;5008385;28;20399;-78
2022/06/27 09:54:52;;;;;;;10.70;9.23;;;17.10;99.90;;;;;;5036151;28;20239;-78
2022/06/27 09:57:19;;;;;;;9.13;8.15;;;17.00;99.90;;;;;;5009031;28;20033;-78
2022/06/27 09:59:48;;;;;;;10.65;8.13;;;17.10;99.90;;;;;;5040614;28;20047;-78
2022/06/27 10:02:16;;;;;;;10.23;8.20;;;17.10;99.90;;;;;;5027892;28;20041;-78
2022/06/27 10:04:51;;;;;;;11.57;9.15;;;17.00;99.90;;;;;;5039007;28;20307;-78
2022/06/27 10:07:18;;;;;;;9.65;7.72;;;17.00;99.90;;;;;;5011229;28;20041;-78
2022/06/27 10:09:45;;;;;;;10.65;8.88;;;17.10;99.90;;;;;;5058885;28;20041;-78
2022/06/27 10:12:24;;;;;;;10.93;8.32;;;17.10;99.90;;;;;;5022779;28;20075;-78
2022/06/27 10:15:09;;;;;;;9.82;8.80;;;17.20;99.90;;;;;;5033058;28;20056;-78
2022/06/27 10:17:38;;;;;;;13.13;9.00;;;17.20;99.90;;;;;;5027152;28;20033;-79
2022/06/27 10:20:19;;;;;;;10.02;8.43;;;17.30;99.90;;;;;;5020838;28;20050;-78
2022/06/27 10:23:07;;;;;;;14.45;9.13;;;17.30;99.90;;;;;;5013015;28;20042;-79
2022/06/27 10:25:35;;;;;;;10.73;9.57;;;17.30;99.90;;;;;;5010514;28;20041;-79
2022/06/27 10:28:10;;;;;;;11.90;9.00;;;17.40;99.90;;;;;;5056358;28;20037;-78
2022/06/27 10:30:38;;;;;;;12.82;8.75;;;17.40;99.90;;;;;;5020612;28;20037;-79
2022/06/27 10:33:22;;;;;;;10.07;8.93;;;17.40;99.90;;;;;;5027382;28;20049;-79
2022/06/27 10:35:54;;;;;;;12.50;9.50;;;17.40;99.90;;;;;;5054018;28;20500;-78
2022/06/27 10:38:43;;;;;;;9.77;8.00;;;17.40;99.90;;;;;;5013366;28;20065;-78
2022/06/27 10:41:11;;;;;;;10.75;8.13;;;17.40;99.90;;;;;;5012970;28;20038;-78
2022/06/27 10:43:38;;;;;;;16.80;9.38;;;17.40;99.90;;;;;;5039334;28;20155;-78
2022/06/27 10:46:09;;;;;;;10.32;8.77;;;17.40;99.90;;;;;;5018418;28;20048;-78
2022/06/27 10:48:37;;;;;;;9.50;8.43;;;17.40;99.90;;;;;;5044946;28;20029;-78
2022/06/27 10:51:33;;;;;;;10.48;9.40;;;17.50;99.90;;;;;;5013031;28;20056;-78
2022/06/27 10:54:04;;;;;;;10.70;8.35;;;17.50;99.90;;;;;;5038103;28;20040;-78
2022/06/27 10:56:34;;;;;;;12.15;9.07;;;17.50;99.90;;;;;;5026586;28;20059;-79
2022/06/27 10:59:02;;;;;;;9.27;8.38;;;17.50;99.90;;;;;;5021422;28;20273;-78
2022/06/27 11:01:29;;;;;;;9.20;8.18;;;17.50;99.90;;;;;;5026345;28;20037;-79
2022/06/27 11:03:56;;;;;;;9.00;7.93;;;17.60;99.90;;;;;;5015896;28;20099;-79
2022/06/27 11:06:22;;;;;;;7.82;7.05;;;17.60;99.90;;;;;;5004644;28;20045;-78
2022/06/27 11:08:50;;;;;;;9.38;7.95;;;17.60;99.90;;;;;;5002691;28;20047;-79
2022/06/27 11:11:18;;;;;;;8.55;7.65;;;17.60;99.90;;;;;;5002974;28;20203;-79
2022/06/27 11:13:54;;;;;;;10.88;8.55;;;17.50;99.90;;;;;;5053338;28;20037;-79
2022/06/27 11:16:25;;;;;;;14.98;8.55;;;17.60;99.90;;;;;;4993840;28;20423;-78
2022/06/27 11:18:54;;;;;;;9.73;8.73;;;17.60;99.90;;;;;;5028502;28;20073;-79
2022/06/27 11:21:25;;;;;;;9.77;7.97;;;17.70;99.90;;;;;;5012017;28;20069;-79
2022/06/27 11:24:00;;;;;;;11.52;9.18;;;17.70;99.90;;;;;;5042308;28;20049;-79
2022/06/27 11:26:34;;;;;;;8.35;7.13;;;17.70;99.90;;;;;;5028476;28;20510;-79
2022/06/27 11:32:06;;;;;;;9.02;7.50;;;17.80;99.90;;;;;;5031667;28;20045;-79
2022/06/27 11:34:40;;;;;;;8.50;7.40;;;17.80;99.90;;;;;;5017332;28;20128;-79
2022/06/27 11:37:18;;;;;;;8.88;6.97;;;17.90;99.90;;;;;;5025648;28;20492;-80
2022/06/27 11:39:58;;;;;;;8.18;6.20;;;17.90;99.90;;;;;;5048441;28;20049;-79
2022/06/27 11:42:29;;;;;;;8.60;7.13;;;17.90;99.90;;;;;;5029222;28;20094;-79
2022/06/27 11:45:03;;;;;;;8.40;6.82;;;17.90;99.90;;;;;;5012988;28;20423;-79
2022/06/27 11:47:29;;;;;;;7.85;6.18;;;17.90;99.90;;;;;;5017649;28;20029;-79
2022/06/27 11:50:07;;;;;;;7.93;7.07;;;17.90;99.90;;;;;;5042135;28;20099;-79
2022/06/27 11:52:37;;;;;;;7.50;6.80;;;17.90;99.90;;;;;;5036671;28;20104;-79
2022/06/27 11:55:18;;;;;;;6.85;5.90;;;17.90;99.90;;;;;;5000629;28;20507;-79
2022/06/27 11:57:56;;;;;;;6.90;5.80;;;17.90;99.90;;;;;;5033582;28;20077;-79
2022/06/27 12:00:26;;;;;;;7.07;5.50;;;17.90;99.90;;;;;;5038603;28;20076;-79
2022/06/27 12:03:00;;;;;;;9.57;6.00;;;17.80;99.90;;;;;;5059105;28;20129;-79
2022/06/27 12:05:26;;;;;;;6.05;4.80;;;17.80;99.90;;;;;;5030460;28;20128;-79
2022/06/27 12:08:01;;;;;;;6.18;4.60;;;17.70;99.90;;;;;;5019242;28;20042;-79
2022/06/27 12:10:43;;;;;;;6.63;4.57;;;17.70;99.90;;;;;;5018168;28;20497;-79
2022/06/27 12:13:11;;;;;;;;;;;17.60;99.90;;;;;;5045201;28;20047;-79
2022/06/27 12:15:38;;;;;;;6.32;5.03;;;17.60;99.90;;;;;;5030734;28;19963;-80
2022/06/27 12:18:06;;;;;;;7.20;5.63;;;17.60;99.90;;;;;;5031000;28;20203;-79
2022/06/27 12:20:33;;;;;;;6.30;5.15;;;17.60;99.90;;;;;;5022009;28;20045;-80
2022/06/27 12:23:00;;;;;;;6.38;5.35;;;17.70;99.90;;;;;;5012025;28;20040;-79
2022/06/27 12:25:27;;;;;;;6.30;5.25;;;17.60;99.90;;;;;;4995613;28;20049;-80
2022/06/27 12:27:53;;;;;;;5.97;5.38;;;17.60;99.90;;;;;;5040283;28;20494;-80
2022/06/27 12:30:19;;;;;;;7.03;5.22;;;17.60;99.90;;;;;;5022432;28;20271;-80
2022/06/27 12:32:45;;;;;;;6.53;4.93;;;17.70;99.90;;;;;;5015744;28;20045;-80
2022/06/27 12:35:11;;;;;;;6.93;5.03;;;17.70;99.90;;;;;;5016536;28;20038;-79
2022/06/27 12:37:38;;;;;;;5.63;5.05;;;17.80;99.90;;;;;;5000348;28;20060;-79
2022/06/27 12:40:05;;;;;;;8.95;4.88;;;17.80;99.90;;;;;;5014492;28;20084;-79
2022/06/27 12:42:31;;;;;;;6.22;5.55;;;17.70;99.90;;;;;;5038865;28;20034;-79
2022/06/27 12:44:57;;;;;;;6.50;5.10;;;17.70;99.90;;;;;;5019291;28;20037;-80
2022/06/27 12:47:23;;;;;;;8.60;5.15;;;17.70;99.90;;;;;;5011155;28;20034;-81
2022/06/27 12:49:50;;;;;;;6.43;5.05;;;17.70;99.90;;;;;;5013976;28;20414;-80
2022/06/27 12:52:16;;;;;;;5.38;4.88;;;17.70;99.90;;;;;;5016111;28;20192;-80
2022/06/27 12:54:43;;;;;;;5.97;5.20;;;17.70;99.90;;;;;;5025394;28;20033;-80